createdAt,value
2023-09-06T00:01:28.776Z,14.30
2023-09-06T00:04:26.306Z,12.50
2023-09-06T00:07:20.711Z,12.00
2023-09-06T00:10:16.029Z,10.20
2023-09-06T00:13:11.057Z,8.90
2023-09-06T00:16:06.060Z,11.10
2023-09-06T00:19:01.222Z,10.80
2023-09-06T00:21:55.465Z,10.70
2023-09-06T00:24:50.099Z,9.90
2023-09-06T00:27:44.357Z,12.70
2023-09-06T00:30:39.226Z,11.80
2023-09-06T00:33:34.862Z,12.30
2023-09-06T00:36:30.329Z,13.60
2023-09-06T00:39:24.767Z,14.10
2023-09-06T00:42:18.971Z,12.20
2023-09-06T00:45:13.969Z,12.60
2023-09-06T00:48:09.964Z,11.30
2023-09-06T00:51:07.251Z,14.40
2023-09-06T00:54:02.116Z,9.70
2023-09-06T00:56:56.979Z,15.70
2023-09-06T00:59:52.609Z,10.50
2023-09-06T01:02:48.317Z,15.50
2023-09-06T01:05:48.640Z,9.60
2023-09-06T01:08:48.397Z,12.00
2023-09-06T01:11:42.675Z,13.10
2023-09-06T01:14:39.468Z,12.80
2023-09-06T01:17:37.611Z,12.80
2023-09-06T01:20:40.429Z,11.80
2023-09-06T01:23:42.372Z,13.80
2023-09-06T01:26:22.548Z,10.80
2023-09-06T01:29:16.605Z,12.50
2023-09-06T01:32:11.354Z,11.20
2023-09-06T01:35:08.216Z,10.60
2023-09-06T01:38:02.223Z,13.60
2023-09-06T01:40:57.016Z,11.80
2023-09-06T01:43:51.510Z,12.50
2023-09-06T01:46:47.104Z,13.40
2023-09-06T01:49:41.455Z,11.30
2023-09-06T01:52:37.856Z,12.50
2023-09-06T01:55:31.773Z,11.70
2023-09-06T01:58:26.133Z,12.10
2023-09-06T02:01:21.045Z,10.00
2023-09-06T02:04:15.120Z,11.30
2023-09-06T02:07:09.290Z,16.20
2023-09-06T02:10:03.880Z,12.70
2023-09-06T02:12:58.101Z,9.70
2023-09-06T02:15:52.355Z,11.50
2023-09-06T02:18:46.486Z,10.30
2023-09-06T02:21:41.140Z,14.80
2023-09-06T02:24:35.306Z,12.50
2023-09-06T02:27:29.206Z,10.60
2023-09-06T02:30:23.348Z,12.70
2023-09-06T02:33:18.011Z,11.10
2023-09-06T02:36:12.397Z,13.10
2023-09-06T02:39:07.769Z,10.40
2023-09-06T02:42:01.770Z,10.60
2023-09-06T02:44:56.180Z,16.80
2023-09-06T02:47:52.698Z,11.40
2023-09-06T02:50:47.146Z,10.60
2023-09-06T02:53:46.872Z,11.40
2023-09-06T02:56:41.371Z,11.90
2023-09-06T02:59:35.387Z,11.90
2023-09-06T03:02:30.078Z,13.80
2023-09-06T03:05:24.414Z,14.00
2023-09-06T03:08:18.689Z,11.20
2023-09-06T03:11:16.068Z,13.30
2023-09-06T03:14:10.169Z,16.30
2023-09-06T03:17:09.835Z,14.60
2023-09-06T03:20:19.709Z,19.10
2023-09-06T03:23:20.280Z,10.90
2023-09-06T03:26:25.642Z,13.30
2023-09-06T03:29:21.553Z,14.20
2023-09-06T03:32:16.233Z,12.10
2023-09-06T03:35:11.633Z,17.30
2023-09-06T03:38:09.763Z,11.60
2023-09-06T03:41:08.407Z,15.10
2023-09-06T03:44:02.857Z,15.20
2023-09-06T03:46:58.793Z,14.30
2023-09-06T03:49:53.335Z,17.40
2023-09-06T03:52:47.597Z,13.10
2023-09-06T03:55:43.150Z,16.10
2023-09-06T03:58:37.876Z,12.50
2023-09-06T04:01:34.225Z,16.10
2023-09-06T04:04:29.982Z,16.70
2023-09-06T04:07:26.387Z,15.60
2023-09-06T04:10:22.742Z,15.00
2023-09-06T04:13:18.069Z,13.00
2023-09-06T04:16:12.174Z,17.30
2023-09-06T04:19:07.638Z,17.90
2023-09-06T04:22:03.204Z,18.20
2023-09-06T04:24:57.565Z,16.70
2023-09-06T04:27:56.331Z,13.40
2023-09-06T04:30:50.435Z,14.40
2023-09-06T04:33:44.629Z,14.20
2023-09-06T04:36:38.926Z,16.30
2023-09-06T04:39:35.408Z,16.80
2023-09-06T04:42:29.792Z,14.10
2023-09-06T04:45:24.075Z,13.00
2023-09-06T04:48:19.263Z,18.70
2023-09-06T04:51:15.854Z,14.70
2023-09-06T04:54:10.885Z,19.00
2023-09-06T04:57:05.840Z,14.90
2023-09-06T05:00:01.737Z,14.60
2023-09-06T05:02:56.382Z,15.80
2023-09-06T05:05:52.412Z,16.40
2023-09-06T05:08:47.053Z,16.90
2023-09-06T05:11:41.100Z,18.20
2023-09-06T05:14:35.512Z,18.40
2023-09-06T05:17:30.197Z,17.70
2023-09-06T05:20:34.343Z,17.20
2023-09-06T05:26:21.969Z,12.00
2023-09-06T05:29:16.788Z,14.80
2023-09-06T05:32:12.486Z,15.50
2023-09-06T05:35:07.599Z,13.60
2023-09-06T05:38:02.026Z,15.80
2023-09-06T05:40:45.689Z,10.30
2023-09-06T05:43:39.851Z,12.90
2023-09-06T05:46:34.420Z,11.40
2023-09-06T05:49:29.820Z,10.70
2023-09-06T05:52:24.370Z,9.60
2023-09-06T05:55:18.597Z,10.90
2023-09-06T05:58:13.107Z,10.70
2023-09-06T06:01:10.291Z,12.50
2023-09-06T06:04:05.680Z,16.30
2023-09-06T06:06:59.798Z,16.20
2023-09-06T06:09:53.980Z,14.40
2023-09-06T06:12:48.709Z,17.40
2023-09-06T06:15:43.719Z,33.10
2023-09-06T06:18:37.896Z,14.90
2023-09-06T06:21:32.969Z,14.40
2023-09-06T06:24:27.541Z,18.10
2023-09-06T06:27:21.650Z,18.70
2023-09-06T06:30:16.527Z,18.90
2023-09-06T06:33:11.337Z,15.90
2023-09-06T06:36:06.138Z,13.00
2023-09-06T06:39:00.200Z,16.90
2023-09-06T06:41:54.855Z,15.60
2023-09-06T06:44:51.724Z,17.10
2023-09-06T06:47:46.306Z,17.70
2023-09-06T06:50:40.470Z,18.50
2023-09-06T06:53:35.503Z,15.20
2023-09-06T06:56:29.772Z,15.10
2023-09-06T06:59:23.754Z,15.10
2023-09-06T07:02:18.299Z,15.50
2023-09-06T07:05:14.009Z,16.60
2023-09-06T07:08:08.934Z,28.00
2023-09-06T07:11:04.673Z,24.80
2023-09-06T07:13:59.476Z,20.20
2023-09-06T07:16:53.698Z,17.60
2023-09-06T07:19:48.281Z,17.70
2023-09-06T07:22:42.398Z,16.70
2023-09-06T07:25:36.826Z,20.60
2023-09-06T07:28:51.841Z,21.40
2023-09-06T07:31:46.749Z,18.80
2023-09-06T07:34:41.095Z,17.20
2023-09-06T07:37:35.563Z,17.40
2023-09-06T07:40:30.744Z,15.80
2023-09-06T07:43:24.968Z,16.60
2023-09-06T07:46:19.343Z,19.20
2023-09-06T07:49:13.458Z,16.30
2023-09-06T07:52:10.345Z,16.90
2023-09-06T07:55:05.578Z,16.50
2023-09-06T07:58:03.287Z,14.70
2023-09-06T08:03:59.556Z,12.70
2023-09-06T08:06:57.020Z,15.20
2023-09-06T08:09:51.898Z,16.20
2023-09-06T08:12:33.494Z,13.60
2023-09-06T08:15:28.751Z,14.10
2023-09-06T08:18:23.061Z,14.00
2023-09-06T08:21:17.839Z,15.50
2023-09-06T08:24:12.117Z,11.90
2023-09-06T08:26:50.036Z,16.00
2023-09-06T08:29:44.849Z,12.80
2023-09-06T08:32:39.221Z,17.60
2023-09-06T08:35:33.617Z,10.10
2023-09-06T08:38:27.751Z,13.40
2023-09-06T08:41:22.872Z,12.50
2023-09-06T08:44:21.408Z,12.20
2023-09-06T08:47:19.596Z,11.30
2023-09-06T08:50:14.695Z,12.50
2023-09-06T08:53:12.075Z,11.50
2023-09-06T08:58:59.989Z,10.50
2023-09-06T09:01:53.991Z,12.70
2023-09-06T09:04:48.190Z,13.00
2023-09-06T09:07:42.533Z,12.50
2023-09-06T09:10:37.142Z,12.50
2023-09-06T09:13:33.308Z,9.90
2023-09-06T09:16:27.576Z,11.50
2023-09-06T09:19:24.116Z,10.80
2023-09-06T09:22:18.027Z,10.90
2023-09-06T09:25:16.046Z,9.70
2023-09-06T09:28:10.665Z,11.80
2023-09-06T09:31:06.499Z,9.80
2023-09-06T09:34:02.038Z,11.50
2023-09-06T09:36:56.790Z,10.50
2023-09-06T09:39:50.930Z,12.80
2023-09-06T09:42:55.200Z,12.70
2023-09-06T09:45:50.474Z,9.30
2023-09-06T09:48:46.185Z,10.80
2023-09-06T09:51:41.455Z,10.80
2023-09-06T09:54:38.374Z,10.50
2023-09-06T09:57:33.847Z,11.10
2023-09-06T10:00:29.901Z,12.10
2023-09-06T10:03:26.940Z,10.70
2023-09-06T10:06:23.419Z,13.80
2023-09-06T10:09:19.566Z,11.80
2023-09-06T10:12:15.837Z,12.00
2023-09-06T10:15:14.753Z,10.40
2023-09-06T10:18:10.008Z,9.70
2023-09-06T10:21:05.498Z,10.20
2023-09-06T10:24:00.634Z,12.40
2023-09-06T10:26:56.827Z,10.90
2023-09-06T10:30:05.021Z,10.90
2023-09-06T10:32:59.273Z,9.20
2023-09-06T10:36:04.184Z,11.00
2023-09-06T10:39:17.580Z,10.60
2023-09-06T10:42:34.075Z,10.30
2023-09-06T10:45:28.270Z,10.50
2023-09-06T10:48:31.208Z,10.60
2023-09-06T10:51:25.352Z,11.00
2023-09-06T10:54:24.139Z,12.20
2023-09-06T10:57:18.606Z,10.30
2023-09-06T11:00:19.728Z,9.70
2023-09-06T11:03:23.286Z,11.10
2023-09-06T11:06:17.351Z,10.10
2023-09-06T11:09:12.093Z,8.80
2023-09-06T11:12:07.276Z,11.20
2023-09-06T11:15:01.114Z,12.40
2023-09-06T11:18:01.093Z,12.10
2023-09-06T11:20:55.253Z,8.80
2023-09-06T11:23:54.417Z,10.10
2023-09-06T11:26:48.440Z,10.70
2023-09-06T11:29:44.093Z,8.80
2023-09-06T11:32:38.069Z,9.60
2023-09-06T11:35:39.650Z,10.20
2023-09-06T11:38:36.479Z,10.60
2023-09-06T11:41:30.567Z,9.60
2023-09-06T11:44:25.079Z,10.00
2023-09-06T11:47:21.450Z,10.90
2023-09-06T11:50:20.384Z,8.90
2023-09-06T11:53:15.061Z,10.20
2023-09-06T11:56:12.671Z,10.00
2023-09-06T12:02:04.796Z,11.00
2023-09-06T12:05:01.838Z,9.70
2023-09-06T12:07:56.901Z,9.90
2023-09-06T12:10:53.692Z,10.40
2023-09-06T12:13:48.529Z,11.70
2023-09-06T12:16:43.484Z,12.70
2023-09-06T12:19:38.497Z,11.00
2023-09-06T12:22:32.289Z,8.70
2023-09-06T12:25:26.227Z,8.10
2023-09-06T12:28:20.164Z,13.20
2023-09-06T12:31:17.894Z,10.30
2023-09-06T12:34:11.985Z,9.80
2023-09-06T12:37:05.971Z,8.70
2023-09-06T12:39:49.849Z,8.50
2023-09-06T12:42:47.886Z,9.40
2023-09-06T12:45:40.650Z,10.10
2023-09-06T12:48:35.730Z,8.20
2023-09-06T12:51:29.896Z,9.50
2023-09-06T12:54:23.901Z,12.50
2023-09-06T12:57:18.652Z,9.20
2023-09-06T13:00:16.088Z,11.30
2023-09-06T13:03:10.375Z,8.00
2023-09-06T13:06:07.812Z,8.50
2023-09-06T13:09:01.861Z,9.40
2023-09-06T13:11:56.484Z,9.20
2023-09-06T13:14:50.543Z,10.00
2023-09-06T13:17:44.662Z,7.40
2023-09-06T13:20:39.301Z,8.70
2023-09-06T13:23:33.865Z,8.00
2023-09-06T13:26:28.364Z,8.60
2023-09-06T13:29:22.401Z,8.70
2023-09-06T13:32:16.588Z,9.40
2023-09-06T13:35:12.779Z,10.90
2023-09-06T13:38:07.271Z,11.00
2023-09-06T13:41:01.596Z,8.70
2023-09-06T13:43:55.560Z,9.90
2023-09-06T13:46:50.346Z,10.00
2023-09-06T13:49:44.555Z,9.30
2023-09-06T13:52:38.609Z,9.00
2023-09-06T13:55:33.024Z,8.90
2023-09-06T13:58:28.301Z,9.70
2023-09-06T14:01:22.810Z,9.80
2023-09-06T14:04:17.158Z,9.10
2023-09-06T14:07:11.995Z,11.00
2023-09-06T14:10:06.872Z,9.40
2023-09-06T14:13:01.496Z,11.00
2023-09-06T14:15:55.978Z,10.30
2023-09-06T14:18:50.033Z,9.70
2023-09-06T14:21:47.029Z,9.70
2023-09-06T14:24:41.372Z,11.40
2023-09-06T14:27:35.275Z,10.20
2023-09-06T14:30:29.499Z,8.80
2023-09-06T14:33:23.338Z,10.80
2023-09-06T14:36:17.601Z,10.40
2023-09-06T14:39:11.586Z,9.70
2023-09-06T14:42:05.949Z,8.80
2023-09-06T14:45:00.227Z,9.10
2023-09-06T14:47:54.543Z,10.40
2023-09-06T14:50:48.614Z,8.60
2023-09-06T14:53:42.646Z,8.90
2023-09-06T14:56:37.997Z,8.30
2023-09-06T14:59:32.746Z,8.90
2023-09-06T15:02:26.720Z,8.90
2023-09-06T15:05:22.602Z,8.00
2023-09-06T15:08:16.471Z,7.90
2023-09-06T15:11:10.525Z,7.60
2023-09-06T15:14:06.039Z,10.30
2023-09-06T15:17:00.141Z,9.40
2023-09-06T15:19:54.074Z,8.20
2023-09-06T15:22:47.963Z,7.30
2023-09-06T15:25:42.351Z,10.70
2023-09-06T15:28:36.283Z,8.50
2023-09-06T15:31:32.004Z,8.40
2023-09-06T15:34:28.497Z,9.20
2023-09-06T15:37:22.718Z,9.00
2023-09-06T15:40:17.111Z,6.90
2023-09-06T15:43:11.333Z,8.50
2023-09-06T15:46:05.366Z,11.20
2023-09-06T15:48:59.411Z,10.40
2023-09-06T15:51:53.556Z,13.00
2023-09-06T15:54:47.693Z,9.10
2023-09-06T15:57:41.793Z,8.40
2023-09-06T16:00:35.679Z,13.10
2023-09-06T16:03:29.898Z,8.90
2023-09-06T16:06:27.057Z,10.20
2023-09-06T16:09:21.680Z,9.00
2023-09-06T16:12:17.079Z,10.90
2023-09-06T16:15:13.039Z,9.10
2023-09-06T16:17:50.141Z,9.30
2023-09-06T16:20:47.026Z,9.60
2023-09-06T16:23:41.212Z,10.70
2023-09-06T16:26:35.146Z,9.50
2023-09-06T16:29:29.223Z,9.70
2023-09-06T16:32:23.078Z,10.40
2023-09-06T16:35:17.062Z,14.30
2023-09-06T16:38:11.371Z,7.60
2023-09-06T16:41:05.393Z,10.90
2023-09-06T16:43:59.424Z,8.20
2023-09-06T16:46:53.377Z,7.60
2023-09-06T16:49:48.474Z,9.20
2023-09-06T16:52:42.568Z,8.30
2023-09-06T16:55:36.819Z,7.30
2023-09-06T16:58:30.797Z,7.10
2023-09-06T17:01:24.936Z,8.60
2023-09-06T17:04:21.270Z,7.50
2023-09-06T17:07:15.615Z,6.90
2023-09-06T17:09:56.995Z,8.10
2023-09-06T17:12:51.821Z,7.70
2023-09-06T17:15:45.909Z,7.30
2023-09-06T17:18:44.654Z,7.30
2023-09-06T17:21:40.150Z,7.20
2023-09-06T17:24:36.248Z,9.90
2023-09-06T17:27:31.233Z,6.80
2023-09-06T17:30:26.374Z,7.10
2023-09-06T17:33:20.382Z,8.60
2023-09-06T17:36:14.777Z,8.30
2023-09-06T17:39:10.239Z,8.20
2023-09-06T17:42:06.430Z,8.70
2023-09-06T17:45:02.078Z,7.30
2023-09-06T17:47:48.128Z,7.70
2023-09-06T17:50:48.880Z,6.90
2023-09-06T17:53:42.997Z,7.10
2023-09-06T17:56:37.612Z,7.10
2023-09-06T17:59:33.285Z,9.30
2023-09-06T18:02:27.321Z,10.00
2023-09-06T18:05:23.384Z,9.50
2023-09-06T18:08:18.619Z,10.50
2023-09-06T18:11:12.973Z,13.60
2023-09-06T18:14:09.225Z,9.20
2023-09-06T18:17:03.386Z,8.50
2023-09-06T18:19:37.308Z,10.00
2023-09-06T18:22:31.303Z,11.00
2023-09-06T18:25:25.208Z,12.00
2023-09-06T18:28:19.226Z,10.00
2023-09-06T18:31:15.809Z,10.20
2023-09-06T18:34:10.060Z,10.30
2023-09-06T18:37:09.442Z,10.00
2023-09-06T18:40:13.935Z,8.40
2023-09-06T18:43:11.123Z,8.90
2023-09-06T18:46:06.092Z,13.80
2023-09-06T18:49:00.084Z,12.80
2023-09-06T18:51:36.984Z,8.50
2023-09-06T18:54:31.182Z,11.00
2023-09-06T18:57:25.266Z,9.50
2023-09-06T19:00:23.279Z,12.30
2023-09-06T19:03:19.537Z,15.00
2023-09-06T19:05:58.993Z,10.80
2023-09-06T19:08:53.050Z,9.70
2023-09-06T19:11:47.261Z,13.40
2023-09-06T19:14:41.270Z,8.80
2023-09-06T19:17:35.993Z,9.30
2023-09-06T19:20:30.450Z,10.60
2023-09-06T19:23:24.313Z,11.50
2023-09-06T19:26:18.484Z,11.00
2023-09-06T19:29:12.369Z,11.90
2023-09-06T19:32:06.756Z,12.50
2023-09-06T19:35:00.618Z,13.60
2023-09-06T19:37:54.773Z,12.70
2023-09-06T19:40:50.805Z,13.10
2023-09-06T19:43:44.886Z,11.40
2023-09-06T19:46:39.273Z,15.80
2023-09-06T19:49:33.960Z,13.50
2023-09-06T19:52:27.911Z,15.60
2023-09-06T19:55:23.293Z,14.70
2023-09-06T19:58:17.444Z,13.60
2023-09-06T20:01:11.787Z,13.70
2023-09-06T20:04:06.890Z,13.90
2023-09-06T20:07:00.897Z,13.50
2023-09-06T20:09:54.845Z,14.00
2023-09-06T20:12:48.882Z,13.20
2023-09-06T20:15:42.933Z,12.10
2023-09-06T20:18:37.067Z,12.10
2023-09-06T20:21:31.308Z,14.60
2023-09-06T20:27:19.187Z,16.50
2023-09-06T20:30:15.306Z,14.80
2023-09-06T20:33:09.622Z,12.50
2023-09-06T20:36:05.849Z,14.40
2023-09-06T20:39:00.097Z,13.70
2023-09-06T20:41:54.096Z,12.30
2023-09-06T20:44:48.132Z,11.10
2023-09-06T20:47:32.034Z,15.10
2023-09-06T20:50:25.915Z,16.00
2023-09-06T20:53:19.806Z,13.30
2023-09-06T20:56:14.171Z,12.20
2023-09-06T20:59:08.398Z,14.40
2023-09-06T21:02:02.416Z,13.60
2023-09-06T21:04:56.778Z,12.10
2023-09-06T21:07:51.044Z,13.60
2023-09-06T21:10:46.382Z,15.30
2023-09-06T21:13:40.687Z,13.70
2023-09-06T21:16:35.310Z,11.40
2023-09-06T21:19:30.147Z,12.40
2023-09-06T21:22:24.199Z,12.40
2023-09-06T21:25:18.533Z,11.70
2023-09-06T21:28:14.425Z,14.90
2023-09-06T21:31:08.568Z,16.00
2023-09-06T21:34:03.749Z,12.40
2023-09-06T21:36:57.901Z,15.90
2023-09-06T21:39:52.472Z,12.80
2023-09-06T21:42:46.735Z,15.00
2023-09-06T21:45:42.581Z,16.50
2023-09-06T21:48:37.308Z,14.10
2023-09-06T21:51:31.614Z,13.60
2023-09-06T21:54:25.533Z,13.20
2023-09-06T21:57:19.587Z,16.10
2023-09-06T22:00:22.454Z,15.20
2023-09-06T22:03:16.924Z,13.80
2023-09-06T22:06:11.284Z,18.70
2023-09-06T22:09:05.480Z,14.20
2023-09-06T22:11:59.856Z,15.00
2023-09-06T22:14:55.051Z,17.10
2023-09-06T22:17:48.991Z,16.00
2023-09-06T22:20:44.416Z,16.20
2023-09-06T22:23:38.273Z,16.00
2023-09-06T22:26:32.302Z,14.70
2023-09-06T22:29:26.177Z,16.60
2023-09-06T22:32:20.417Z,14.00
2023-09-06T22:35:14.378Z,13.30
2023-09-06T22:38:08.554Z,15.50
2023-09-06T22:41:02.335Z,15.80
2023-09-06T22:43:56.446Z,14.70
2023-09-06T22:46:50.457Z,16.40
2023-09-06T22:49:44.993Z,14.80
2023-09-06T22:52:39.492Z,15.60
2023-09-06T22:55:33.668Z,15.30
2023-09-06T22:58:27.981Z,12.00
2023-09-06T23:01:21.905Z,16.60
2023-09-06T23:04:16.421Z,16.50
2023-09-06T23:07:10.755Z,17.80
2023-09-06T23:10:05.672Z,18.60
2023-09-06T23:13:01.357Z,17.50
2023-09-06T23:15:56.424Z,18.40
2023-09-06T23:18:51.393Z,16.30
2023-09-06T23:21:45.499Z,14.40
2023-09-06T23:24:41.680Z,16.70
2023-09-06T23:27:35.934Z,16.20
2023-09-06T23:30:32.169Z,19.60
2023-09-06T23:33:34.662Z,19.40
2023-09-06T23:36:29.957Z,17.90
2023-09-06T23:39:24.216Z,16.30
2023-09-06T23:42:21.029Z,16.00
2023-09-06T23:45:15.405Z,15.30
2023-09-06T23:48:10.437Z,16.00
2023-09-06T23:51:04.450Z,16.10
2023-09-06T23:53:58.270Z,14.90
2023-09-06T23:56:52.362Z,14.50
2023-09-06T23:59:46.495Z,17.40
